Terminal Aerodrome Forecast
Issued by NWS Milwaukee/Sullivan, WI

Home | Current Version | Previous Version | Text Only | Print | Product List | Glossary On
Versions: 1 2 3 4 5 6 7 8 9 10 11 12 13 14 15 16 17 18 19 20 21 22 23 24 25 26 27 28 29 30 31 32 33 34 35
000
FTUS43 KMKX 301234 AAA
TAFMSN
TAF AMD
KMSN 301234Z 3013/3112 VRB03KT P6SM VCSH SCT005 BKN090
      TEMPO 3013/3015 BKN005
     FM301800 27005KT P6SM BKN035
     FM302000 28005KT P6SM VCTS BKN060CB
     FM310600 35004KT P6SM BKN250=

USA.gov is the U.S. government's official web portal to all federal, state and local government web resources and services.